Mann, Pennsylvania
Current Conditions -  °F | °C
As of 3:00 PM on Saturday 25 Oct 2014 (Local Time) from KCBE Reporting Station
Clear Clear  
Wind Chill: 70°   Ceiling: Unl
Heat Index: 70°   Visibility: 10mi
Dew Point: 43°   Wind: 12mph
Humidity: 38%   Direction: 250°WSW
Pressure: 29.85"   Gusts: 18mph
Location:  39.7658°N, 78.4047°W
Report Text: KCBE 251900Z AUTO 25010G16KT 10SM CLR 21/06 A2985 RMK AO1
Loading
Personal Weather Stations






























Interactive Weather Map
Tropical Storm Tracking
New forecast layout! Learn more

10-Day Weather Forecast

Advertisements
Track Severe Weather on mobile